Time;durP1;ratioP1;P1;durP2;ratioP2;P2;SDS_P1;SDS_P2;PMS_P1;PMS_P2;Temp;Humidity;BMP_temperature;BMP_pressure;BME280_temperature;BME280_humidity;BME280_pressure;Samples;Min_cycle;Max_cycle;Signal;HPM_P1;HPM_P2
2021/03/03 00:02:25;;;;;;;59.92;33.53;;;2.90;99.90;;;;;;5114204;28;20232;-77
2021/03/03 00:04:53;;;;;;;58.67;34.08;;;2.90;99.90;;;;;;5114008;28;20215;-78
2021/03/03 00:07:19;;;;;;;69.20;37.22;;;2.90;99.90;;;;;;5114774;28;20609;-78
2021/03/03 00:09:45;;;;;;;64.50;33.80;;;3.00;99.90;;;;;;5115305;28;20210;-78
2021/03/03 00:12:12;;;;;;;50.77;26.47;;;2.90;99.90;;;;;;5115034;28;20239;-76
2021/03/03 00:14:38;;;;;;;43.78;24.42;;;2.90;99.90;;;;;;5115109;28;20880;-76
2021/03/03 00:17:04;;;;;;;44.10;27.02;;;2.90;99.90;;;;;;5115046;28;20188;-76
2021/03/03 00:19:30;;;;;;;54.35;29.05;;;2.90;99.90;;;;;;5114794;28;20249;-76
2021/03/03 00:21:56;;;;;;;52.83;29.60;;;3.00;99.90;;;;;;5114821;28;20291;-76
2021/03/03 00:24:22;;;;;;;61.55;30.48;;;2.90;99.90;;;;;;5114924;28;20278;-77
2021/03/03 00:26:48;;;;;;;58.80;31.40;;;2.90;99.90;;;;;;5114920;28;20195;-77
2021/03/03 00:29:15;;;;;;;56.97;33.70;;;3.00;99.90;;;;;;5114757;28;20798;-77
2021/03/03 00:31:41;;;;;;;58.58;32.75;;;2.90;99.90;;;;;;5114068;28;20615;-76
2021/03/03 00:34:07;;;;;;;61.15;32.42;;;2.90;99.90;;;;;;5114424;28;20279;-76
2021/03/03 00:36:33;;;;;;;59.08;32.95;;;2.90;99.90;;;;;;5114851;28;20282;-76
2021/03/03 00:38:59;;;;;;;64.43;35.27;;;2.90;99.90;;;;;;5114618;28;20195;-76
2021/03/03 00:41:25;;;;;;;65.83;36.03;;;2.90;99.90;;;;;;5114666;28;20450;-76
2021/03/03 00:43:51;;;;;;;58.42;31.13;;;2.90;99.90;;;;;;5114459;28;20537;-75
2021/03/03 00:46:18;;;;;;;55.87;29.80;;;2.90;99.90;;;;;;5114457;28;20564;-75
2021/03/03 00:48:44;;;;;;;58.70;32.50;;;2.90;99.90;;;;;;5114143;28;20996;-75
2021/03/03 00:51:10;;;;;;;69.93;34.67;;;2.90;99.90;;;;;;5114584;28;20237;-75
2021/03/03 00:53:36;;;;;;;64.82;34.25;;;2.80;99.90;;;;;;5114282;28;20614;-75
2021/03/03 00:56:02;;;;;;;61.53;35.20;;;2.80;99.90;;;;;;5114413;28;20660;-75
2021/03/03 00:58:28;;;;;;;51.95;31.92;;;2.80;99.90;;;;;;5114244;28;20529;-75
2021/03/03 01:00:54;;;;;;;49.73;31.00;;;2.70;99.90;;;;;;5114273;28;20199;-75
2021/03/03 01:03:21;;;;;;;52.00;30.42;;;2.70;99.90;;;;;;5114049;28;20477;-75
2021/03/03 01:05:47;;;;;;;64.38;33.45;;;2.70;99.90;;;;;;5114037;28;20200;-75
2021/03/03 01:08:13;;;;;;;58.47;33.30;;;2.70;99.90;;;;;;5114207;28;20188;-75
2021/03/03 01:10:39;;;;;;;64.38;35.40;;;2.70;99.90;;;;;;5114197;28;20538;-75
2021/03/03 01:13:05;;;;;;;75.35;40.53;;;2.70;99.90;;;;;;5114018;28;20738;-75
2021/03/03 01:15:31;;;;;;;78.90;39.80;;;2.60;99.90;;;;;;5113929;28;20227;-75
2021/03/03 01:18:00;;;;;;;80.43;40.72;;;2.60;99.90;;;;;;5113823;28;20275;-75
2021/03/03 01:20:28;;;;;;;66.45;34.40;;;2.60;99.90;;;;;;5113941;28;20188;-75
2021/03/03 01:22:54;;;;;;;58.78;35.60;;;2.50;99.90;;;;;;5113941;28;20593;-76
2021/03/03 01:25:20;;;;;;;71.88;39.60;;;2.50;99.90;;;;;;5102960;28;20216;-76
2021/03/03 01:27:46;;;;;;;79.00;43.10;;;2.50;99.90;;;;;;5113781;28;20340;-76
2021/03/03 01:30:13;;;;;;;67.00;39.85;;;2.50;99.90;;;;;;5113476;28;20302;-76
2021/03/03 01:32:39;;;;;;;72.05;42.55;;;2.40;99.90;;;;;;5113260;28;20315;-76
2021/03/03 01:35:06;;;;;;;84.82;44.85;;;2.40;99.90;;;;;;5113740;28;20270;-76
2021/03/03 01:37:33;;;;;;;82.55;43.67;;;2.40;99.90;;;;;;5113374;28;20738;-76
2021/03/03 01:39:59;;;;;;;80.30;47.88;;;2.40;99.90;;;;;;5113423;28;20274;-76
2021/03/03 01:42:25;;;;;;;70.05;40.78;;;2.40;99.90;;;;;;5113513;28;20611;-76
2021/03/03 01:44:51;;;;;;;66.07;38.53;;;2.30;99.90;;;;;;5112627;28;20234;-77
2021/03/03 01:47:17;;;;;;;72.07;40.93;;;2.20;99.90;;;;;;5107055;28;20227;-77
2021/03/03 01:49:43;;;;;;;80.88;44.90;;;2.30;99.90;;;;;;5113386;28;20445;-77
2021/03/03 01:52:09;;;;;;;76.47;41.50;;;2.20;99.90;;;;;;5113425;28;20339;-81
2021/03/03 01:54:36;;;;;;;74.65;42.65;;;2.20;99.90;;;;;;5113328;28;20665;-76
2021/03/03 01:57:03;;;;;;;63.72;36.60;;;2.20;99.90;;;;;;5113425;28;20275;-76
2021/03/03 01:59:29;;;;;;;79.50;44.00;;;2.20;99.90;;;;;;5113177;28;20575;-76
2021/03/03 02:01:55;;;;;;;71.57;36.58;;;2.20;99.90;;;;;;5113191;28;20620;-76
2021/03/03 02:04:21;;;;;;;62.85;36.03;;;2.20;99.90;;;;;;5113382;28;20283;-76
2021/03/03 02:06:53;;;;;;;66.72;35.25;;;2.10;99.90;;;;;;5113113;28;20191;-76
2021/03/03 02:09:25;;;;;;;65.18;33.00;;;2.10;99.90;;;;;;5113233;28;20624;-76
2021/03/03 02:11:58;;;;;;;79.93;40.78;;;2.10;99.90;;;;;;5113035;28;20230;-75
2021/03/03 02:14:27;;;;;;;74.40;38.45;;;2.20;99.90;;;;;;5112969;28;20184;-75
2021/03/03 02:16:55;;;;;;;71.57;37.97;;;2.10;99.90;;;;;;5113279;28;20282;-75
2021/03/03 02:19:25;;;;;;;52.50;29.10;;;2.10;99.90;;;;;;5113094;28;20259;-75
2021/03/03 02:21:57;;;;;;;49.60;29.90;;;2.10;99.90;;;;;;5113222;28;20227;-75
2021/03/03 02:24:27;;;;;;;42.67;24.58;;;2.10;99.90;;;;;;5113043;28;20664;-75
2021/03/03 02:26:57;;;;;;;47.58;25.65;;;2.10;99.90;;;;;;5112970;28;20329;-75
2021/03/03 02:29:26;;;;;;;45.72;27.00;;;2.10;99.90;;;;;;5113035;28;20196;-75
2021/03/03 02:31:53;;;;;;;55.00;30.13;;;2.10;99.90;;;;;;5112840;28;20306;-75
2021/03/03 02:34:20;;;;;;;57.15;29.30;;;2.10;99.90;;;;;;5112914;28;20279;-75
2021/03/03 02:36:48;;;;;;;50.63;26.55;;;2.10;99.90;;;;;;5113008;28;20227;-76
2021/03/03 02:39:15;;;;;;;55.08;28.50;;;2.20;99.90;;;;;;5112950;28;20596;-75
2021/03/03 02:41:42;;;;;;;53.53;29.48;;;2.20;99.90;;;;;;5113108;28;20284;-76
2021/03/03 02:44:12;;;;;;;52.25;27.60;;;2.20;99.90;;;;;;5112906;28;20212;-76
2021/03/03 02:46:42;;;;;;;57.00;30.48;;;2.20;99.90;;;;;;5112930;28;20611;-77
2021/03/03 02:49:08;;;;;;;53.25;28.75;;;2.20;99.90;;;;;;5112715;28;20237;-77
2021/03/03 02:51:34;;;;;;;40.08;24.52;;;2.20;99.90;;;;;;5112822;28;20220;-77
2021/03/03 02:54:00;;;;;;;53.38;28.30;;;2.10;99.90;;;;;;5112536;28;20212;-76
2021/03/03 02:56:27;;;;;;;61.28;33.00;;;2.20;99.90;;;;;;5116076;28;20278;-76
2021/03/03 02:58:54;;;;;;;59.47;36.28;;;2.10;99.90;;;;;;5116624;28;20191;-77
2021/03/03 03:01:22;;;;;;;51.95;29.40;;;2.10;99.90;;;;;;5116517;28;20219;-76
2021/03/03 03:03:52;;;;;;;39.40;23.65;;;2.10;99.90;;;;;;5116486;28;20241;-76
2021/03/03 03:06:22;;;;;;;51.97;29.13;;;2.00;99.90;;;;;;5116312;28;20222;-76
2021/03/03 03:08:50;;;;;;;51.03;30.05;;;2.00;99.90;;;;;;5116322;28;20710;-76
2021/03/03 03:11:20;;;;;;;59.67;31.42;;;2.00;99.90;;;;;;5116348;28;20232;-76
2021/03/03 03:13:48;;;;;;;43.95;28.20;;;1.90;99.90;;;;;;5116345;28;20563;-76
2021/03/03 03:16:15;;;;;;;58.85;31.63;;;1.90;99.90;;;;;;5116136;28;20241;-76
2021/03/03 03:18:47;;;;;;;51.15;28.80;;;1.90;99.90;;;;;;5116179;28;20283;-75
2021/03/03 03:21:15;;;;;;;39.15;22.25;;;1.90;99.90;;;;;;5116006;28;20317;-76
2021/03/03 03:23:41;;;;;;;30.55;20.13;;;1.90;99.90;;;;;;5116356;28;20196;-76
2021/03/03 03:26:08;;;;;;;36.13;21.63;;;1.90;99.90;;;;;;5116042;28;20199;-76
2021/03/03 03:28:36;;;;;;;38.15;22.48;;;1.90;99.90;;;;;;5116175;28;20275;-76
2021/03/03 03:31:03;;;;;;;41.10;25.15;;;1.90;99.90;;;;;;5115918;28;20253;-76
2021/03/03 03:33:30;;;;;;;42.42;23.90;;;1.90;99.90;;;;;;5115709;28;20263;-76
2021/03/03 03:35:58;;;;;;;47.80;26.38;;;1.90;99.90;;;;;;5114694;28;20274;-75
2021/03/03 03:38:26;;;;;;;54.13;30.48;;;2.00;99.90;;;;;;5116010;28;20279;-76
2021/03/03 03:40:52;;;;;;;39.15;24.05;;;2.00;99.90;;;;;;5115934;28;20287;-76
2021/03/03 03:43:19;;;;;;;42.22;24.27;;;1.90;99.90;;;;;;5115785;28;20270;-76
2021/03/03 03:45:48;;;;;;;39.15;22.63;;;1.90;99.90;;;;;;5115781;28;20722;-76
2021/03/03 03:48:15;;;;;;;47.65;26.25;;;1.90;99.90;;;;;;5111510;28;20278;-75
2021/03/03 03:50:42;;;;;;;43.63;23.85;;;1.90;99.90;;;;;;5115703;28;20287;-76
2021/03/03 03:53:09;;;;;;;41.42;23.73;;;1.90;99.90;;;;;;5115478;28;20302;-76
2021/03/03 03:55:36;;;;;;;37.92;23.55;;;1.90;99.90;;;;;;5115491;28;20225;-76
2021/03/03 03:58:03;;;;;;;35.58;21.00;;;1.90;99.90;;;;;;5115415;28;20248;-76
2021/03/03 04:00:30;;;;;;;39.78;22.50;;;1.90;99.90;;;;;;5115313;28;20226;-76
2021/03/03 04:02:56;;;;;;;35.58;23.27;;;1.90;99.90;;;;;;5115209;28;20710;-76
2021/03/03 04:05:23;;;;;;;35.83;20.40;;;1.90;99.90;;;;;;5115358;28;20275;-76
2021/03/03 04:07:50;;;;;;;39.75;23.30;;;1.90;99.90;;;;;;5114281;28;20231;-76
2021/03/03 04:10:19;;;;;;;35.92;21.45;;;1.90;99.90;;;;;;5115287;28;20287;-76
2021/03/03 04:12:45;;;;;;;34.05;20.60;;;1.90;99.90;;;;;;5115018;28;20211;-76
2021/03/03 04:15:12;;;;;;;40.17;20.58;;;1.90;99.90;;;;;;5115059;28;20283;-76
2021/03/03 04:17:40;;;;;;;39.70;22.73;;;1.90;99.90;;;;;;5115095;28;20279;-76
2021/03/03 04:20:07;;;;;;;38.03;20.50;;;1.90;99.90;;;;;;5115180;28;20332;-76
2021/03/03 04:22:34;;;;;;;36.78;21.73;;;1.90;99.90;;;;;;5114976;28;20227;-76
2021/03/03 04:25:00;;;;;;;42.30;23.75;;;1.80;99.90;;;;;;5114835;28;20278;-76
2021/03/03 04:27:27;;;;;;;39.10;23.48;;;1.80;99.90;;;;;;5114687;27;20274;-76
2021/03/03 04:29:53;;;;;;;46.72;22.77;;;1.80;99.90;;;;;;5114930;28;20216;-75
2021/03/03 04:32:19;;;;;;;37.13;21.35;;;1.80;99.90;;;;;;5114524;28;20259;-75
2021/03/03 04:34:45;;;;;;;42.35;24.25;;;1.80;99.90;;;;;;5114824;28;20196;-75
2021/03/03 04:37:11;;;;;;;38.08;24.42;;;1.80;99.90;;;;;;5114733;28;20215;-75
2021/03/03 04:39:37;;;;;;;43.63;25.85;;;1.70;99.90;;;;;;5114524;28;20271;-75
2021/03/03 04:42:04;;;;;;;50.92;26.42;;;1.70;99.90;;;;;;5114435;28;20603;-76
2021/03/03 04:44:31;;;;;;;48.00;26.42;;;1.70;99.90;;;;;;5108956;28;20195;-76
2021/03/03 04:46:57;;;;;;;41.22;25.23;;;1.70;99.90;;;;;;5112843;28;20291;-76
2021/03/03 04:49:23;;;;;;;48.63;26.70;;;1.60;99.90;;;;;;5114384;28;20184;-76
2021/03/03 04:51:49;;;;;;;43.88;23.60;;;1.60;99.90;;;;;;5114326;28;20495;-75
2021/03/03 04:54:15;;;;;;;33.83;21.45;;;1.50;99.90;;;;;;5114301;28;20286;-75
2021/03/03 04:56:41;;;;;;;41.50;23.77;;;1.50;99.90;;;;;;5114197;28;20216;-75
2021/03/03 04:59:07;;;;;;;45.03;27.17;;;1.50;99.90;;;;;;5114298;28;20329;-75
2021/03/03 05:01:34;;;;;;;48.13;26.70;;;1.50;99.90;;;;;;5114367;28;20227;-76
2021/03/03 05:04:00;;;;;;;46.13;26.48;;;1.40;99.90;;;;;;5114033;28;20292;-76
2021/03/03 05:06:26;;;;;;;43.55;26.83;;;1.40;99.90;;;;;;5114166;28;20198;-76
2021/03/03 05:08:53;;;;;;;54.55;25.10;;;1.40;99.90;;;;;;5113883;28;20271;-76
2021/03/03 05:11:21;;;;;;;40.85;22.90;;;1.30;99.90;;;;;;5113965;28;20202;-76
2021/03/03 05:13:47;;;;;;;41.60;24.27;;;1.30;99.90;;;;;;5113892;28;20641;-76
2021/03/03 05:16:13;;;;;;;49.58;24.23;;;1.30;99.90;;;;;;5113827;28;20283;-76
2021/03/03 05:18:40;;;;;;;43.60;23.08;;;1.30;99.90;;;;;;5113850;28;20230;-76
2021/03/03 05:21:06;;;;;;;42.22;25.10;;;1.20;99.90;;;;;;5113880;28;20195;-76
2021/03/03 05:23:33;;;;;;;38.80;21.27;;;1.20;99.90;;;;;;5113570;28;20248;-76
2021/03/03 05:26:01;;;;;;;45.13;23.23;;;1.20;99.90;;;;;;5110545;28;20451;-76
2021/03/03 05:28:28;;;;;;;39.13;23.60;;;1.20;99.90;;;;;;5093404;28;20283;-75
2021/03/03 05:30:54;;;;;;;42.60;24.02;;;1.20;99.90;;;;;;5093370;28;20283;-75
2021/03/03 05:33:27;;;;;;;45.25;26.10;;;1.20;99.90;;;;;;5093005;28;20264;-76
2021/03/03 05:35:55;;;;;;;41.45;22.77;;;1.20;99.90;;;;;;5093289;28;20611;-76
2021/03/03 05:38:22;;;;;;;47.55;25.58;;;1.20;99.90;;;;;;5093073;28;20315;-76
2021/03/03 05:40:48;;;;;;;49.20;25.30;;;1.20;99.90;;;;;;5093141;28;20283;-76
2021/03/03 05:43:15;;;;;;;58.22;28.67;;;1.20;99.90;;;;;;5093145;28;20663;-76
2021/03/03 05:45:42;;;;;;;54.95;31.92;;;1.10;99.90;;;;;;5092989;28;20668;-76
2021/03/03 05:48:12;;;;;;;70.22;33.15;;;1.10;99.90;;;;;;5102779;28;20238;-76
2021/03/03 05:50:41;;;;;;;48.40;29.20;;;1.10;99.90;;;;;;5113380;28;20253;-76
2021/03/03 05:53:08;;;;;;;72.25;38.53;;;1.10;99.90;;;;;;5113153;28;20670;-76
2021/03/03 05:55:34;;;;;;;60.22;32.33;;;1.10;99.90;;;;;;5113294;28;20216;-76
2021/03/03 05:58:01;;;;;;;48.25;27.60;;;1.10;99.90;;;;;;5111580;28;20188;-76
2021/03/03 06:00:29;;;;;;;61.78;30.75;;;1.10;99.90;;;;;;5112839;28;20211;-76
2021/03/03 06:02:56;;;;;;;50.72;28.88;;;1.10;99.90;;;;;;5113238;28;20220;-76
2021/03/03 06:05:22;;;;;;;41.97;25.40;;;1.10;99.90;;;;;;5113157;28;20278;-76
2021/03/03 06:07:50;;;;;;;49.35;27.83;;;1.20;99.90;;;;;;5113038;28;20215;-76
2021/03/03 06:10:16;;;;;;;51.38;29.65;;;1.20;99.90;;;;;;5113052;28;20710;-76
2021/03/03 06:12:42;;;;;;;46.13;25.83;;;1.20;99.90;;;;;;5113045;28;20302;-76
2021/03/03 06:15:09;;;;;;;52.73;27.47;;;1.30;99.90;;;;;;5113138;28;20222;-77
2021/03/03 06:17:36;;;;;;;40.25;23.75;;;1.40;99.90;;;;;;5113177;28;20536;-81
2021/03/03 06:20:03;;;;;;;44.08;25.42;;;1.40;99.90;;;;;;5112917;28;20282;-76
2021/03/03 06:22:29;;;;;;;42.22;23.90;;;1.40;99.90;;;;;;5108398;28;20603;-77
2021/03/03 06:24:56;;;;;;;42.00;22.75;;;1.50;99.90;;;;;;5112642;28;20218;-76
2021/03/03 06:27:23;;;;;;;42.53;24.08;;;1.60;99.90;;;;;;5112981;28;20274;-77
2021/03/03 06:30:05;;;;;;;37.00;22.15;;;1.70;99.90;;;;;;5113423;28;20367;-76
2021/03/03 06:32:31;;;;;;;42.92;24.58;;;1.80;99.90;;;;;;5096146;28;20319;-76
2021/03/03 06:34:57;;;;;;;36.97;22.50;;;1.80;99.90;;;;;;5096659;28;20192;-76
2021/03/03 06:37:23;;;;;;;36.45;22.60;;;1.90;99.90;;;;;;5101084;28;20441;-78
2021/03/03 06:40:07;;;;;;;37.85;21.55;;;2.10;99.90;;;;;;5114351;28;20190;-78
2021/03/03 06:42:34;;;;;;;30.13;18.90;;;2.20;99.90;;;;;;5116661;28;20272;-78
2021/03/03 06:45:00;;;;;;;35.60;20.10;;;2.30;99.90;;;;;;5116163;28;20224;-78
2021/03/03 06:47:26;;;;;;;34.05;18.85;;;2.50;99.90;;;;;;5114001;28;20185;-78
2021/03/03 06:49:53;;;;;;;29.63;18.67;;;2.60;99.90;;;;;;5116553;28;20242;-78
2021/03/03 06:52:37;;;;;;;32.65;19.23;;;2.70;99.90;;;;;;5115695;28;20184;-79
2021/03/03 06:55:04;;;;;;;33.13;21.00;;;2.80;99.90;;;;;;5115481;28;20194;-79
2021/03/03 06:57:30;;;;;;;28.10;17.58;;;3.00;99.90;;;;;;5114859;28;20212;-79
2021/03/03 06:59:57;;;;;;;29.50;18.37;;;3.10;99.90;;;;;;5116512;28;20203;-79
2021/03/03 07:02:30;;;;;;;29.60;18.75;;;3.10;99.90;;;;;;5115694;28;20544;-79
2021/03/03 07:04:56;;;;;;;29.65;19.27;;;3.30;99.90;;;;;;5109450;28;20554;-78
2021/03/03 07:07:22;;;;;;;33.38;18.70;;;3.40;99.90;;;;;;5108149;28;20191;-78
2021/03/03 07:09:50;;;;;;;30.73;17.83;;;3.40;99.90;;;;;;5114489;28;20706;-78
2021/03/03 07:12:18;;;;;;;26.85;17.20;;;3.50;99.90;;;;;;5115141;28;20271;-78
2021/03/03 07:14:45;;;;;;;32.03;19.70;;;3.60;99.90;;;;;;5115869;28;20236;-78
2021/03/03 07:17:15;;;;;;;37.53;19.38;;;3.70;99.90;;;;;;5115635;28;20279;-78
2021/03/03 07:19:43;;;;;;;36.10;17.75;;;3.70;99.90;;;;;;5113053;28;20282;-78
2021/03/03 07:22:22;;;;;;;28.20;17.05;;;3.80;99.90;;;;;;5113348;28;20605;-78
2021/03/03 07:24:50;;;;;;;28.55;18.25;;;3.90;99.90;;;;;;5114758;28;20662;-78
2021/03/03 07:27:18;;;;;;;31.30;18.73;;;4.00;99.90;;;;;;5115210;28;20233;-78
2021/03/03 07:29:47;;;;;;;29.42;18.50;;;4.10;99.90;;;;;;5112493;28;20192;-79
2021/03/03 07:32:15;;;;;;;25.70;17.65;;;4.20;99.90;;;;;;5114330;28;20251;-79
2021/03/03 07:34:41;;;;;;;28.35;17.00;;;4.20;99.90;;;;;;5114937;28;20226;-79
2021/03/03 07:37:09;;;;;;;30.00;17.52;;;4.30;99.90;;;;;;5114612;28;20218;-79
2021/03/03 07:39:39;;;;;;;28.73;18.27;;;4.40;99.90;;;;;;5115408;28;20272;-79
2021/03/03 07:42:12;;;;;;;29.40;19.20;;;4.40;99.90;;;;;;5109667;28;20283;-79
2021/03/03 07:44:42;;;;;;;29.00;19.00;;;4.50;99.90;;;;;;5111403;28;20183;-79
2021/03/03 07:47:09;;;;;;;29.92;19.10;;;4.50;99.90;;;;;;5113843;28;20176;-79
2021/03/03 07:49:36;;;;;;;28.35;18.73;;;4.60;99.90;;;;;;5114634;28;20619;-79
2021/03/03 07:52:03;;;;;;;30.67;19.90;;;4.60;99.90;;;;;;5114982;28;20270;-79
2021/03/03 07:54:31;;;;;;;28.30;19.70;;;4.60;99.90;;;;;;5114379;28;20226;-78
2021/03/03 07:56:57;;;;;;;30.52;20.20;;;4.60;99.90;;;;;;5111661;28;20255;-78
2021/03/03 07:59:24;;;;;;;29.88;19.17;;;4.50;99.90;;;;;;5107965;28;20184;-78
2021/03/03 08:01:50;;;;;;;29.15;18.40;;;4.50;99.90;;;;;;5111722;28;20199;-78
2021/03/03 08:04:34;;;;;;;30.52;20.20;;;4.50;99.90;;;;;;5112506;28;20547;-78
2021/03/03 08:07:19;;;;;;;34.60;21.05;;;4.50;99.90;;;;;;5112484;28;20222;-78
2021/03/03 08:10:28;;;;;;;34.17;18.90;;;4.50;99.90;;;;;;5112934;28;20191;-78
2021/03/03 08:12:59;;;;;;;33.60;20.10;;;4.50;99.90;;;;;;5101006;28;20604;-79
2021/03/03 08:15:47;;;;;;;32.00;19.85;;;4.50;99.90;;;;;;5112982;28;20271;-79
2021/03/03 08:18:29;;;;;;;32.15;21.13;;;4.50;99.90;;;;;;5109357;28;20184;-79
2021/03/03 08:20:57;;;;;;;34.92;21.02;;;4.50;99.90;;;;;;5109558;28;20180;-82
2021/03/03 08:23:46;;;;;;;36.17;23.25;;;4.50;99.90;;;;;;5113952;28;20256;-78
2021/03/03 08:26:32;;;;;;;34.75;21.13;;;4.50;99.90;;;;;;5114086;28;20267;-78
2021/03/03 08:29:23;;;;;;;32.67;21.23;;;4.50;99.90;;;;;;5113923;28;20524;-78
2021/03/03 08:31:49;;;;;;;35.88;22.00;;;4.50;99.90;;;;;;5113439;28;20864;-78
2021/03/03 08:34:16;;;;;;;35.25;22.02;;;4.50;99.90;;;;;;5111964;28;20635;-78
2021/03/03 08:36:59;;;;;;;36.75;21.92;;;4.50;99.90;;;;;;5112128;28;20603;-78
2021/03/03 08:39:37;;;;;;;33.88;22.77;;;4.50;99.90;;;;;;5106283;28;20184;-78
2021/03/03 08:42:29;;;;;;;42.30;23.55;;;4.50;99.90;;;;;;5112972;27;20232;-81
2021/03/03 08:45:01;;;;;;;37.75;23.65;;;4.60;99.90;;;;;;5112506;28;20622;-78
2021/03/03 08:47:47;;;;;;;39.38;23.75;;;4.60;99.90;;;;;;5114083;28;20238;-78
2021/03/03 08:50:42;;;;;;;37.38;23.70;;;4.60;99.90;;;;;;5113413;28;20279;-79
2021/03/03 08:53:25;;;;;;;40.95;23.65;;;4.70;99.90;;;;;;5112628;28;20219;-82
2021/03/03 08:55:52;;;;;;;38.80;25.13;;;4.70;99.90;;;;;;5110489;28;21590;-78
2021/03/03 08:58:59;;;;;;;37.88;24.42;;;4.80;99.90;;;;;;5109689;28;20274;-78
2021/03/03 09:01:53;;;;;;;33.60;22.67;;;4.80;99.90;;;;;;5111771;28;20647;-78
2021/03/03 09:04:21;;;;;;;41.58;25.70;;;4.80;99.90;;;;;;5100649;28;20313;-82
2021/03/03 09:06:49;;;;;;;40.50;25.70;;;4.90;99.90;;;;;;5110786;28;20216;-78
2021/03/03 09:09:15;;;;;;;37.35;25.13;;;4.90;99.90;;;;;;5109675;28;20279;-78
2021/03/03 09:11:42;;;;;;;39.50;26.05;;;5.00;99.90;;;;;;5108652;28;20332;-78
2021/03/03 09:14:08;;;;;;;36.38;24.90;;;5.00;99.90;;;;;;5111369;28;20755;-78
2021/03/03 09:16:34;;;;;;;39.28;25.20;;;5.00;99.90;;;;;;5112714;28;20653;-78
2021/03/03 09:19:06;;;;;;;40.22;25.33;;;5.10;99.90;;;;;;5112452;28;20216;-77
2021/03/03 09:21:32;;;;;;;43.20;25.92;;;5.10;99.90;;;;;;5108101;28;20592;-77
2021/03/03 09:24:09;;;;;;;42.55;26.08;;;5.10;99.90;;;;;;5111574;28;20616;-78
2021/03/03 09:26:36;;;;;;;42.38;28.10;;;5.20;99.90;;;;;;5111462;28;20241;-78
2021/03/03 09:29:03;;;;;;;48.75;26.95;;;5.20;99.90;;;;;;5111927;28;20184;-78
2021/03/03 09:31:31;;;;;;;40.10;26.00;;;5.30;99.90;;;;;;5110476;28;20222;-78
2021/03/03 09:33:57;;;;;;;36.83;25.65;;;5.30;99.90;;;;;;5110631;28;20298;-78
2021/03/03 09:36:23;;;;;;;36.67;27.38;;;5.40;99.90;;;;;;5110446;28;20271;-78
2021/03/03 09:38:53;;;;;;;42.45;26.98;;;5.40;99.90;;;;;;5110381;28;20337;-77
2021/03/03 09:41:20;;;;;;;44.13;26.63;;;5.50;99.90;;;;;;5107856;28;20271;-77
2021/03/03 09:43:58;;;;;;;44.13;26.95;;;5.50;99.90;;;;;;5108655;28;20188;-77
2021/03/03 09:46:25;;;;;;;41.13;27.38;;;5.60;99.90;;;;;;5108332;28;20211;-77
2021/03/03 09:48:51;;;;;;;41.72;27.15;;;5.70;99.90;;;;;;5105849;28;20275;-77
2021/03/03 09:51:17;;;;;;;46.50;26.57;;;5.80;99.90;;;;;;5110097;28;20684;-78
2021/03/03 09:53:51;;;;;;;45.65;27.90;;;5.90;99.90;;;;;;5112142;28;20576;-78
2021/03/03 09:56:30;;;;;;;46.38;26.63;;;6.00;99.90;;;;;;5112340;28;20236;-78
2021/03/03 09:58:56;;;;;;;42.38;27.17;;;6.20;99.90;;;;;;5112087;28;20192;-78
2021/03/03 10:01:23;;;;;;;43.65;26.65;;;6.20;99.90;;;;;;5112011;28;20275;-78
2021/03/03 10:03:52;;;;;;;37.88;25.23;;;6.30;99.90;;;;;;5112029;28;20605;-78
2021/03/03 10:06:18;;;;;;;41.90;26.73;;;6.30;99.90;;;;;;5111483;28;20609;-78
2021/03/03 10:08:44;;;;;;;44.47;29.00;;;6.30;99.90;;;;;;5112158;28;20209;-78
2021/03/03 10:11:11;;;;;;;36.38;24.40;;;6.30;99.90;;;;;;5108916;28;20585;-78
2021/03/03 10:13:41;;;;;;;42.60;27.57;;;6.40;99.90;;;;;;5111305;28;20204;-78
2021/03/03 10:16:15;;;;;;;40.75;26.00;;;6.40;99.90;;;;;;5111351;28;21097;-78
2021/03/03 10:18:56;;;;;;;42.92;27.80;;;6.50;99.90;;;;;;5110327;28;20188;-78
2021/03/03 10:21:23;;;;;;;41.00;26.85;;;6.50;99.90;;;;;;5110068;28;20272;-79
2021/03/03 10:23:49;;;;;;;45.90;28.50;;;6.50;99.90;;;;;;5111209;28;20180;-78
2021/03/03 10:26:15;;;;;;;38.78;24.75;;;6.60;99.90;;;;;;5108729;28;20279;-77
2021/03/03 10:28:41;;;;;;;40.72;28.20;;;6.60;99.90;;;;;;5111415;28;20187;-78
2021/03/03 10:31:18;;;;;;;41.67;26.60;;;6.70;99.90;;;;;;5108910;28;20262;-77
2021/03/03 10:33:47;;;;;;;43.27;27.27;;;6.80;99.90;;;;;;5095127;28;20485;-77
2021/03/03 10:36:17;;;;;;;43.97;25.50;;;6.90;99.90;;;;;;5108116;28;20502;-77
2021/03/03 10:38:45;;;;;;;40.60;26.90;;;6.90;99.90;;;;;;5111071;28;20279;-77
2021/03/03 10:41:21;;;;;;;36.78;25.65;;;7.00;99.90;;;;;;5108552;28;20200;-77
2021/03/03 10:43:48;;;;;;;39.72;26.77;;;7.10;99.90;;;;;;5108629;28;20199;-77
2021/03/03 10:46:16;;;;;;;41.00;24.48;;;7.10;99.90;;;;;;5108311;28;20188;-88
2021/03/03 10:48:42;;;;;;;41.40;28.00;;;7.10;99.90;;;;;;5109210;28;20185;-87
2021/03/03 10:51:09;;;;;;;38.10;25.10;;;7.20;99.90;;;;;;5111292;28;20552;-87
2021/03/03 10:53:49;;;;;;;38.03;24.77;;;7.20;99.90;;;;;;5108983;28;20577;-89
2021/03/03 10:56:26;;;;;;;34.03;23.85;;;7.30;99.90;;;;;;5108856;28;21049;-90
2021/03/03 10:58:53;;;;;;;40.80;23.90;;;7.30;99.90;;;;;;5108755;28;20265;-90
2021/03/03 11:01:19;;;;;;;37.87;23.93;;;7.30;99.90;;;;;;5111456;28;20532;-89
2021/03/03 11:03:53;;;;;;;33.17;23.30;;;7.30;99.90;;;;;;5112113;28;20450;-90
2021/03/03 11:06:19;;;;;;;36.13;24.00;;;7.40;99.90;;;;;;5112030;28;20449;-92
2021/03/03 11:08:46;;;;;;;34.60;23.00;;;7.40;99.90;;;;;;5112381;28;20473;-91
2021/03/03 11:11:13;;;;;;;37.03;22.07;;;7.40;99.90;;;;;;5112548;28;20912;-91
2021/03/03 11:13:39;;;;;;;34.40;23.85;;;7.50;99.90;;;;;;5111942;28;20477;-88
2021/03/03 11:16:06;;;;;;;31.15;22.45;;;7.60;99.90;;;;;;5112922;28;20211;-90
2021/03/03 11:18:32;;;;;;;31.77;22.10;;;7.70;99.90;;;;;;5116192;28;20622;-91
2021/03/03 11:21:00;;;;;;;34.20;23.43;;;7.70;99.90;;;;;;5115453;28;20442;-91
2021/03/03 11:23:27;;;;;;;32.57;21.60;;;7.70;99.90;;;;;;5115617;28;20445;-92
2021/03/03 11:25:53;;;;;;;32.30;21.73;;;7.70;99.90;;;;;;5107739;28;20525;-92
2021/03/03 11:28:20;;;;;;;36.30;22.83;;;7.70;99.90;;;;;;5115082;28;20529;-88
2021/03/03 11:30:46;;;;;;;29.67;20.93;;;7.80;99.90;;;;;;5114435;28;20459;-87
2021/03/03 11:33:12;;;;;;;31.53;23.10;;;7.80;99.90;;;;;;5114422;28;20557;-87
2021/03/03 11:35:38;;;;;;;35.13;22.17;;;7.80;99.90;;;;;;5115180;28;20473;-88
2021/03/03 11:38:04;;;;;;;33.83;23.23;;;7.90;99.90;;;;;;5115023;28;20522;-87
2021/03/03 11:40:30;;;;;;;32.53;22.07;;;7.90;99.90;;;;;;5115045;28;20438;-88
2021/03/03 11:42:57;;;;;;;36.27;22.57;;;7.90;99.90;;;;;;5114964;28;20453;-88
2021/03/03 11:45:23;;;;;;;34.90;21.20;;;8.00;99.90;;;;;;5115154;28;20489;-87
2021/03/03 11:47:49;;;;;;;36.00;23.20;;;8.00;99.90;;;;;;5114820;28;20525;-89
2021/03/03 11:50:16;;;;;;;30.50;22.00;;;8.10;99.90;;;;;;5114907;28;20789;-89
2021/03/03 11:52:42;;;;;;;36.33;22.03;;;8.20;99.90;;;;;;5114812;28;20911;-89
2021/03/03 11:55:09;;;;;;;37.13;24.90;;;8.20;99.90;;;;;;5114912;28;20441;-89
2021/03/03 11:57:35;;;;;;;39.23;26.00;;;8.20;99.90;;;;;;5114326;28;20453;-88
2021/03/03 12:00:02;;;;;;;37.67;25.27;;;8.20;99.90;;;;;;5114334;28;20536;-88
2021/03/03 12:02:29;;;;;;;37.07;24.77;;;8.20;99.90;;;;;;5114043;28;20441;-87
2021/03/03 12:04:55;;;;;;;39.00;23.87;;;8.20;99.90;;;;;;5114489;28;20536;-88
2021/03/03 12:07:21;;;;;;;35.03;24.93;;;8.20;99.90;;;;;;5111585;28;20446;-88
2021/03/03 12:09:47;;;;;;;34.07;23.40;;;8.30;99.90;;;;;;5114460;28;20560;-88
2021/03/03 12:12:13;;;;;;;32.30;23.40;;;8.40;99.90;;;;;;5114473;28;20537;-88
2021/03/03 12:14:40;;;;;;;35.00;22.37;;;8.50;99.90;;;;;;5114458;28;20481;-88
2021/03/03 12:17:06;;;;;;;36.77;24.60;;;8.50;99.90;;;;;;5114828;28;20442;-88
2021/03/03 12:19:33;;;;;;;33.77;23.33;;;8.60;99.90;;;;;;5114687;28;20533;-88
2021/03/03 12:22:01;;;;;;;30.17;22.13;;;8.70;99.90;;;;;;5114655;28;20496;-88
2021/03/03 12:24:28;;;;;;;34.57;23.60;;;8.70;99.90;;;;;;5114415;28;20450;-86
2021/03/03 12:26:54;;;;;;;37.43;25.17;;;8.80;99.90;;;;;;5114094;28;20561;-86
2021/03/03 12:29:20;;;;;;;33.07;22.70;;;8.80;99.90;;;;;;5113314;28;20533;-86
2021/03/03 12:31:46;;;;;;;36.60;22.83;;;9.00;99.90;;;;;;5113577;28;21037;-87
2021/03/03 12:34:12;;;;;;;34.97;23.37;;;8.90;99.90;;;;;;5113784;28;20481;-86
2021/03/03 12:36:39;;;;;;;34.50;21.90;;;9.00;99.90;;;;;;5113853;28;20587;-86
2021/03/03 12:39:05;;;;;;;31.77;21.93;;;9.00;99.90;;;;;;5113623;28;20537;-85
2021/03/03 12:41:31;;;;;;;33.73;22.57;;;9.00;99.90;;;;;;5113681;28;20441;-87
2021/03/03 12:43:58;;;;;;;30.17;21.83;;;9.00;99.90;;;;;;5114021;28;20422;-86